aviador You're here:

FBMN Decoded Metar

MAUN in BOTSWANA
Report Time2018-06-25 11:00:00
UTC Time2018-06-25 11:49:50
Flight Rules vfr VFR
Wind270° at 03 kt
W.Decomp.*RWY 26: 2.8 kt HW 1.0 kt RCW
W.Rank270° ranks 25
Current wind is below 270° avg. (4.9)
Visibility9999 m
Phenomena:N/A
Clouds:Few 030 Hf
Expected CloudBase > 8,000 ft AGL from Temp-Dew spread
CeilingNone
Temp25°C (ISA +16)
Dew Point05°C (28% RH)
AAT22.8°C
QNH1022 hPa
Density Alt4,600 ft
Elevation2,953 ft
Report Wrong Elevation
Raw Report
FBMN 251100Z 27003KT 9999 FEW030 25/05 Q1022=

Extra information for FBMN:More info

Metar Taf Metar & Taf Last 4 Metars F.Rules Stats Wind Profile Meteogram Temp Stats Airport Information Weather charts Add Link Nearby VenuesMetar ALERT Operation Metar Decoded Social comments